createdAt,value
2018-04-24T00:00:25.803Z,7.37
2018-04-24T00:02:53.277Z,6.80
2018-04-24T00:05:20.744Z,3.33
2018-04-24T00:07:48.224Z,4.23
2018-04-24T00:10:15.680Z,9.40
2018-04-24T00:12:43.144Z,4.53
2018-04-24T00:15:10.621Z,4.23
2018-04-24T00:17:38.845Z,7.57
2018-04-24T00:20:06.332Z,8.50
2018-04-24T00:22:33.793Z,5.23
2018-04-24T00:25:02.022Z,4.53
2018-04-24T00:27:29.516Z,6.33
2018-04-24T00:29:57.021Z,9.20
2018-04-24T00:32:24.504Z,6.33
2018-04-24T00:34:51.968Z,6.30
2018-04-24T00:37:19.485Z,7.43
2018-04-24T00:39:47.040Z,5.43
2018-04-24T00:42:14.602Z,7.87
2018-04-24T00:44:42.429Z,3.97
2018-04-24T00:47:10.654Z,5.93
2018-04-24T00:49:38.113Z,6.80
2018-04-24T00:52:05.925Z,7.03
2018-04-24T00:54:34.148Z,5.23
2018-04-24T00:57:01.633Z,5.03
2018-04-24T00:59:29.104Z,5.03
2018-04-24T01:01:57.362Z,6.77
2018-04-24T01:04:24.871Z,6.37
2018-04-24T01:06:52.335Z,7.07
2018-04-24T01:09:19.831Z,7.50
2018-04-24T01:11:47.314Z,4.67
2018-04-24T01:14:15.570Z,5.57
2018-04-24T01:16:43.071Z,6.47
2018-04-24T01:19:10.564Z,5.47
2018-04-24T01:21:38.025Z,8.03
2018-04-24T01:24:05.498Z,9.27
2018-04-24T01:26:32.977Z,6.47
2018-04-24T01:29:01.206Z,5.43
2018-04-24T01:31:28.680Z,6.27
2018-04-24T01:33:56.156Z,6.87
2018-04-24T01:36:24.389Z,7.50
2018-04-24T01:38:51.869Z,7.53
2018-04-24T01:41:19.347Z,5.90
2018-04-24T01:43:47.584Z,5.63
2018-04-24T01:46:15.099Z,6.23
2018-04-24T01:48:42.557Z,7.90
2018-04-24T01:51:10.037Z,6.63
2018-04-24T01:53:37.513Z,7.90
2018-04-24T01:56:06.508Z,9.30
2018-04-24T01:58:35.485Z,6.77
2018-04-24T02:01:02.946Z,7.40
2018-04-24T02:03:30.424Z,5.50
2018-04-24T02:05:58.740Z,9.90
2018-04-24T02:08:26.217Z,8.83
2018-04-24T02:10:53.677Z,7.87
2018-04-24T02:13:21.161Z,7.63
2018-04-24T02:15:48.664Z,9.47
2018-04-24T02:18:16.151Z,9.70
2018-04-24T02:20:43.617Z,8.23
2018-04-24T02:23:11.077Z,7.10
2018-04-24T02:25:38.561Z,5.37
2018-04-24T02:28:06.788Z,8.27
2018-04-24T02:30:34.278Z,6.27
2018-04-24T02:33:01.737Z,5.63
2018-04-24T02:35:29.981Z,6.17
2018-04-24T02:37:57.445Z,7.83
2018-04-24T02:40:24.973Z,8.03
2018-04-24T02:42:52.429Z,7.37
2018-04-24T02:45:19.888Z,3.70
2018-04-24T02:47:47.368Z,3.80
2018-04-24T02:50:14.853Z,10.03
2018-04-24T02:52:43.093Z,6.63
2018-04-24T02:55:10.556Z,8.53
2018-04-24T02:57:38.508Z,7.50
2018-04-24T03:00:05.976Z,4.80
2018-04-24T03:02:33.828Z,7.30
2018-04-24T03:05:01.288Z,6.00
2018-04-24T03:07:28.797Z,4.60
2018-04-24T03:09:56.280Z,6.03
2018-04-24T03:12:23.744Z,10.70
2018-04-24T03:14:51.220Z,6.47
2018-04-24T03:17:18.692Z,5.63
2018-04-24T03:19:46.173Z,5.70
2018-04-24T03:22:14.404Z,7.13
2018-04-24T03:24:41.860Z,3.77
2018-04-24T03:27:09.342Z,5.83
2018-04-24T03:29:37.572Z,4.73
2018-04-24T03:32:05.049Z,4.50
2018-04-24T03:34:32.513Z,5.47
2018-04-24T03:37:00.005Z,5.93
2018-04-24T03:39:28.245Z,3.53
2018-04-24T03:41:55.708Z,6.03
2018-04-24T03:44:23.184Z,3.27
2018-04-24T03:46:51.423Z,3.67
2018-04-24T03:49:18.909Z,6.70
2018-04-24T03:51:47.132Z,3.50
2018-04-24T03:54:14.617Z,5.30
2018-04-24T03:56:42.080Z,5.23
2018-04-24T03:59:09.544Z,5.87
2018-04-24T04:01:37.789Z,3.97
2018-04-24T04:04:05.248Z,3.73
2018-04-24T04:06:32.740Z,5.20
2018-04-24T04:09:00.967Z,4.83
2018-04-24T04:11:28.445Z,3.00
2018-04-24T04:13:55.950Z,3.57
2018-04-24T04:16:23.512Z,3.50
2018-04-24T04:19:02.957Z,4.63
2018-04-24T04:21:42.297Z,6.27
2018-04-24T04:24:21.720Z,4.77
2018-04-24T04:26:49.181Z,4.00
2018-04-24T04:29:16.656Z,3.90
2018-04-24T04:31:45.069Z,3.67
2018-04-24T04:34:13.303Z,3.60
2018-04-24T04:36:40.776Z,3.97
2018-04-24T04:39:08.249Z,6.57
2018-04-24T04:41:35.727Z,4.97
2018-04-24T04:44:03.975Z,3.70
2018-04-24T04:46:31.437Z,3.43
2018-04-24T04:48:58.941Z,4.63
2018-04-24T04:51:26.410Z,5.80
2018-04-24T04:53:53.892Z,5.47
2018-04-24T04:56:21.365Z,8.63
2018-04-24T04:58:48.836Z,3.97
2018-04-24T05:01:17.081Z,4.83
2018-04-24T05:03:44.541Z,4.27
2018-04-24T05:06:12.804Z,3.33
2018-04-24T05:08:40.272Z,4.23
2018-04-24T05:11:07.764Z,5.33
2018-04-24T05:13:35.237Z,4.77
2018-04-24T05:16:02.712Z,4.17
2018-04-24T05:18:30.185Z,5.93
2018-04-24T05:20:57.661Z,5.77
2018-04-24T05:23:25.159Z,6.30
2018-04-24T05:25:52.629Z,4.03
2018-04-24T05:28:20.174Z,3.60
2018-04-24T05:30:47.657Z,5.70
2018-04-24T05:33:15.124Z,4.20
2018-04-24T05:35:42.600Z,4.40
2018-04-24T05:38:10.848Z,6.20
2018-04-24T05:40:38.420Z,3.47
2018-04-24T05:43:05.881Z,6.23
2018-04-24T05:45:33.355Z,5.77
2018-04-24T05:48:00.836Z,3.90
2018-04-24T05:50:28.304Z,5.00
2018-04-24T05:52:55.802Z,4.80
2018-04-24T05:55:23.278Z,6.50
2018-04-24T05:57:51.594Z,4.47
2018-04-24T06:00:19.802Z,3.40
2018-04-24T06:02:47.280Z,4.13
2018-04-24T06:05:15.533Z,6.07
2018-04-24T06:07:42.997Z,3.80
2018-04-24T06:10:10.489Z,6.80
2018-04-24T06:12:37.959Z,3.57
2018-04-24T06:15:05.471Z,3.93
2018-04-24T06:17:32.933Z,6.60
2018-04-24T06:20:01.185Z,4.73
2018-04-24T06:22:28.706Z,4.63
2018-04-24T06:24:56.896Z,6.83
2018-04-24T06:27:24.380Z,5.27
2018-04-24T06:29:51.849Z,4.87
2018-04-24T06:32:20.108Z,6.63
2018-04-24T06:34:47.597Z,6.43
2018-04-24T06:37:15.852Z,5.37
2018-04-24T06:39:44.782Z,6.60
2018-04-24T06:42:12.663Z,5.13
2018-04-24T06:44:40.877Z,4.27
2018-04-24T06:47:08.343Z,9.20
2018-04-24T06:49:36.604Z,4.07
2018-04-24T06:52:04.085Z,7.47
2018-04-24T06:54:31.569Z,6.23
2018-04-24T06:56:59.040Z,5.57
2018-04-24T06:59:26.520Z,4.60
2018-04-24T07:01:53.993Z,5.37
2018-04-24T07:04:22.256Z,8.27
2018-04-24T07:06:49.720Z,4.93
2018-04-24T07:09:17.961Z,5.33
2018-04-24T07:11:45.489Z,6.53
2018-04-24T07:14:12.965Z,6.33
2018-04-24T07:16:40.448Z,5.93
2018-04-24T07:19:07.960Z,4.67
2018-04-24T07:21:35.445Z,5.03
2018-04-24T07:24:02.946Z,4.37
2018-04-24T07:26:31.516Z,5.40
2018-04-24T07:28:59.748Z,4.57
2018-04-24T07:31:27.220Z,5.33
2018-04-24T07:33:54.699Z,7.60
2018-04-24T07:36:22.929Z,5.50
2018-04-24T07:38:50.469Z,8.40
2018-04-24T07:41:17.942Z,4.57
2018-04-24T07:43:45.444Z,7.43
2018-04-24T07:46:13.676Z,6.37
2018-04-24T07:48:41.181Z,4.93
2018-04-24T07:51:09.417Z,4.70
2018-04-24T07:53:36.888Z,7.30
2018-04-24T07:56:04.373Z,6.27
2018-04-24T07:58:32.607Z,4.77
2018-04-24T08:01:00.108Z,5.73
2018-04-24T08:03:28.343Z,5.40
2018-04-24T08:05:55.833Z,6.63
2018-04-24T08:08:24.073Z,6.60
2018-04-24T08:10:51.537Z,6.47
2018-04-24T08:13:19.024Z,4.30
2018-04-24T08:15:47.253Z,7.57
2018-04-24T08:18:14.746Z,6.20
2018-04-24T08:20:42.977Z,4.87
2018-04-24T08:23:10.477Z,6.30
2018-04-24T08:25:37.959Z,5.67
2018-04-24T08:28:05.425Z,8.07
2018-04-24T08:30:32.905Z,6.30
2018-04-24T08:33:00.382Z,4.67
2018-04-24T08:35:27.861Z,6.27
2018-04-24T08:37:56.109Z,5.27
2018-04-24T08:40:23.614Z,5.37
2018-04-24T08:42:51.078Z,7.23
2018-04-24T08:45:18.549Z,6.50
2018-04-24T08:47:46.104Z,8.37
2018-04-24T08:50:14.277Z,9.67
2018-04-24T08:52:41.761Z,4.83
2018-04-24T08:55:09.228Z,7.50
2018-04-24T08:57:36.713Z,5.53
2018-04-24T09:00:04.179Z,6.37
2018-04-24T09:02:31.642Z,6.77
2018-04-24T09:04:59.125Z,8.37
2018-04-24T09:07:26.594Z,4.93
2018-04-24T09:09:54.844Z,7.53
2018-04-24T09:12:22.312Z,6.83
2018-04-24T09:14:49.793Z,5.57
2018-04-24T09:17:17.278Z,4.67
2018-04-24T09:19:44.781Z,4.27
2018-04-24T09:22:12.248Z,8.33
2018-04-24T09:24:39.717Z,9.53
2018-04-24T09:27:07.256Z,7.03
2018-04-24T09:29:34.689Z,6.70
2018-04-24T09:32:02.182Z,7.23
2018-04-24T09:34:29.670Z,6.20
2018-04-24T09:36:57.149Z,6.17
2018-04-24T09:39:24.623Z,6.43
2018-04-24T09:41:52.129Z,6.93
2018-04-24T09:44:20.374Z,9.57
2018-04-24T09:46:47.837Z,5.97
2018-04-24T09:49:15.317Z,7.67
2018-04-24T09:51:42.796Z,4.80
2018-04-24T09:54:10.289Z,5.70
2018-04-24T09:56:37.749Z,7.03
2018-04-24T09:59:05.248Z,5.20
2018-04-24T10:01:33.473Z,9.63
2018-04-24T10:04:00.960Z,6.33
2018-04-24T10:06:29.200Z,5.57
2018-04-24T10:08:56.668Z,5.97
2018-04-24T10:11:24.152Z,4.87
2018-04-24T10:13:52.386Z,5.60
2018-04-24T10:16:19.864Z,5.70
2018-04-24T10:18:47.329Z,4.53
2018-04-24T10:21:14.812Z,5.70
2018-04-24T10:23:42.381Z,6.67
2018-04-24T10:26:10.305Z,5.93
2018-04-24T10:28:39.288Z,5.37
2018-04-24T10:31:06.754Z,5.40
2018-04-24T10:33:34.241Z,4.67
2018-04-24T10:36:01.705Z,5.60
2018-04-24T10:38:29.185Z,6.20
2018-04-24T10:40:56.657Z,7.33
2018-04-24T10:43:24.140Z,4.47
2018-04-24T10:45:52.372Z,5.40
2018-04-24T10:48:19.869Z,4.70
2018-04-24T10:50:48.106Z,4.93
2018-04-24T10:53:15.580Z,7.43
2018-04-24T10:55:43.878Z,7.20
2018-04-24T10:58:11.318Z,8.00
2018-04-24T11:00:38.822Z,5.33
2018-04-24T11:03:06.293Z,5.03
2018-04-24T11:05:33.773Z,8.87
2018-04-24T11:08:01.241Z,8.17
2018-04-24T11:10:28.877Z,7.33
2018-04-24T11:12:56.341Z,4.20
2018-04-24T11:15:23.805Z,6.20
2018-04-24T11:17:51.291Z,6.77
2018-04-24T11:20:19.531Z,6.27
2018-04-24T11:22:47.092Z,5.07
2018-04-24T11:25:14.508Z,5.97
2018-04-24T11:27:41.993Z,4.00
2018-04-24T11:30:09.464Z,7.00
2018-04-24T11:32:36.949Z,5.47
2018-04-24T11:35:05.188Z,5.37
2018-04-24T11:37:32.657Z,5.57
2018-04-24T11:40:00.914Z,4.23
2018-04-24T11:42:28.385Z,4.57
2018-04-24T11:44:55.873Z,5.13
2018-04-24T11:47:23.337Z,4.60
2018-04-24T11:49:50.825Z,4.70
2018-04-24T11:52:18.297Z,12.47
2018-04-24T11:54:45.772Z,4.30
2018-04-24T11:57:13.354Z,5.50
2018-04-24T11:59:40.772Z,3.17
2018-04-24T12:02:08.263Z,4.60
2018-04-24T12:04:36.530Z,4.90
2018-04-24T12:07:05.060Z,3.10
2018-04-24T12:09:32.524Z,4.20
2018-04-24T12:11:59.997Z,2.60
2018-04-24T12:14:27.480Z,3.73
2018-04-24T12:16:55.781Z,5.77
2018-04-24T12:19:23.265Z,4.67
2018-04-24T12:21:50.749Z,3.00
2018-04-24T12:24:18.585Z,5.43
2018-04-24T12:26:46.768Z,4.57
2018-04-24T12:29:14.233Z,3.93
2018-04-24T12:31:41.713Z,7.00
2018-04-24T12:34:09.945Z,4.37
2018-04-24T12:36:37.434Z,4.13
2018-04-24T12:39:05.690Z,4.70
2018-04-24T12:41:33.185Z,5.60
2018-04-24T12:44:01.418Z,3.80
2018-04-24T12:46:28.934Z,5.33
2018-04-24T12:48:56.406Z,3.87
2018-04-24T12:51:23.949Z,5.30
2018-04-24T12:53:51.428Z,5.30
2018-04-24T12:56:18.892Z,3.27
2018-04-24T12:58:46.402Z,4.27
2018-04-24T13:01:13.869Z,5.70
2018-04-24T13:03:41.365Z,3.33
2018-04-24T13:06:08.837Z,2.90
2018-04-24T13:08:36.318Z,3.87
2018-04-24T13:11:04.549Z,4.87
2018-04-24T13:13:32.036Z,3.30
2018-04-24T13:16:00.276Z,3.87
2018-04-24T13:18:27.755Z,2.50
2018-04-24T13:20:55.263Z,3.80
2018-04-24T13:23:22.736Z,3.70
2018-04-24T13:25:50.299Z,4.07
2018-04-24T13:28:18.470Z,2.67
2018-04-24T13:30:45.969Z,3.03
2018-04-24T13:33:14.208Z,3.30
2018-04-24T13:35:41.693Z,3.03
2018-04-24T13:38:09.164Z,2.73
2018-04-24T13:40:37.424Z,4.37
2018-04-24T13:43:05.814Z,4.13
2018-04-24T13:45:33.221Z,7.67
2018-04-24T13:48:00.752Z,4.63
2018-04-24T13:50:28.213Z,3.63
2018-04-24T13:52:55.697Z,6.63
2018-04-24T13:55:23.247Z,5.03
2018-04-24T13:57:50.737Z,4.37
2018-04-24T14:00:18.210Z,6.17
2018-04-24T14:02:46.445Z,4.77
2018-04-24T14:05:13.926Z,4.17
2018-04-24T14:07:41.388Z,5.63
2018-04-24T14:10:09.673Z,3.60
2018-04-24T14:12:37.916Z,4.47
2018-04-24T14:15:06.901Z,3.10
2018-04-24T14:17:34.374Z,5.00
2018-04-24T14:20:01.863Z,4.60
2018-04-24T14:22:29.349Z,3.93
2018-04-24T14:24:56.808Z,3.27
2018-04-24T14:27:24.341Z,4.73
2018-04-24T14:29:51.804Z,5.17
2018-04-24T14:32:19.288Z,6.33
2018-04-24T14:34:46.760Z,4.37
2018-04-24T14:37:15.777Z,4.60
2018-04-24T14:39:44.013Z,3.97
2018-04-24T14:42:11.492Z,3.87
2018-04-24T14:44:38.965Z,4.57
2018-04-24T14:47:07.224Z,4.23
2018-04-24T14:49:34.685Z,4.57
2018-04-24T14:52:02.916Z,7.50
2018-04-24T14:54:30.405Z,4.87
2018-04-24T14:56:58.648Z,5.83
2018-04-24T14:59:26.129Z,9.47
2018-04-24T15:01:53.597Z,6.83
2018-04-24T15:04:21.850Z,6.40
2018-04-24T15:06:49.325Z,8.17
2018-04-24T15:09:17.573Z,6.23
2018-04-24T15:11:45.053Z,5.67
2018-04-24T15:14:12.541Z,5.47
2018-04-24T15:16:40.029Z,6.53
2018-04-24T15:19:07.564Z,7.37
2018-04-24T15:21:35.077Z,9.33
2018-04-24T15:24:02.542Z,10.27
2018-04-24T15:26:30.822Z,7.30
2018-04-24T15:28:59.057Z,8.60
2018-04-24T15:31:26.532Z,8.50
2018-04-24T15:33:54.817Z,7.40
2018-04-24T15:36:24.034Z,7.73
2018-04-24T15:38:52.257Z,7.60
2018-04-24T15:41:19.721Z,6.83
2018-04-24T15:43:47.206Z,7.90
2018-04-24T15:46:15.456Z,10.07
2018-04-24T15:48:42.940Z,7.87
2018-04-24T15:51:11.168Z,8.73
2018-04-24T15:53:38.657Z,7.70
2018-04-24T15:56:06.157Z,6.87
2018-04-24T15:58:33.640Z,7.23
2018-04-24T16:01:01.142Z,7.60
2018-04-24T16:03:29.368Z,7.03
2018-04-24T16:05:56.856Z,8.67
2018-04-24T16:08:24.328Z,8.63
2018-04-24T16:10:52.584Z,8.87
2018-04-24T16:13:20.057Z,8.03
2018-04-24T16:15:48.308Z,7.07
2018-04-24T16:18:15.786Z,8.50
2018-04-24T16:20:44.040Z,7.83
2018-04-24T16:23:11.509Z,7.53
2018-04-24T16:25:39.779Z,7.50
2018-04-24T16:28:07.240Z,8.03
2018-04-24T16:30:35.541Z,8.93
2018-04-24T16:33:03.043Z,9.97
2018-04-24T16:35:30.516Z,8.37
2018-04-24T16:37:58.764Z,7.87
2018-04-24T16:40:26.236Z,8.13
2018-04-24T16:42:53.718Z,6.97
2018-04-24T16:45:21.189Z,9.90
2018-04-24T16:47:48.669Z,7.43
2018-04-24T16:50:16.148Z,11.93
2018-04-24T16:52:43.661Z,7.50
2018-04-24T16:55:11.129Z,8.50
2018-04-24T16:57:38.616Z,7.83
2018-04-24T17:00:06.085Z,9.63
2018-04-24T17:02:33.553Z,9.97
2018-04-24T17:05:01.049Z,7.80
2018-04-24T17:07:28.611Z,8.10
2018-04-24T17:09:56.092Z,7.83
2018-04-24T17:12:23.637Z,7.63
2018-04-24T17:14:51.061Z,10.47
2018-04-24T17:17:18.533Z,10.27
2018-04-24T17:19:46.028Z,9.03
2018-04-24T17:22:13.497Z,7.40
2018-04-24T17:24:40.982Z,9.23
2018-04-24T17:27:09.216Z,8.13
2018-04-24T17:29:36.688Z,8.50
2018-04-24T17:32:04.168Z,8.80
2018-04-24T17:34:32.397Z,7.90
2018-04-24T17:36:59.884Z,7.40
2018-04-24T17:39:28.134Z,7.77
2018-04-24T17:41:55.651Z,8.17
2018-04-24T17:44:23.116Z,7.40
2018-04-24T17:46:50.610Z,8.63
2018-04-24T17:49:18.073Z,7.97
2018-04-24T17:51:45.549Z,7.97
2018-04-24T17:54:13.801Z,8.40
2018-04-24T17:56:42.049Z,9.43
2018-04-24T17:59:09.573Z,9.80
2018-04-24T18:01:37.041Z,8.80
2018-04-24T18:04:04.625Z,7.53
2018-04-24T18:06:32.788Z,7.40
2018-04-24T18:09:00.294Z,9.17
2018-04-24T18:11:28.558Z,9.50
2018-04-24T18:13:56.016Z,7.73
2018-04-24T18:16:23.502Z,10.93
2018-04-24T18:18:50.967Z,8.57
2018-04-24T18:21:18.449Z,10.47
2018-04-24T18:23:45.917Z,10.03
2018-04-24T18:26:13.402Z,7.93
2018-04-24T18:28:41.652Z,7.83
2018-04-24T18:31:09.149Z,7.77
2018-04-24T18:33:36.662Z,7.93
2018-04-24T18:36:04.969Z,8.30
2018-04-24T18:38:32.417Z,8.73
2018-04-24T18:40:59.901Z,8.13
2018-04-24T18:43:27.394Z,8.23
2018-04-24T18:45:54.861Z,8.80
2018-04-24T18:48:22.345Z,9.37
2018-04-24T18:50:49.848Z,12.50
2018-04-24T18:53:17.354Z,10.17
2018-04-24T18:55:44.837Z,12.63
2018-04-24T18:58:12.316Z,9.27
2018-04-24T19:00:39.809Z,9.77
2018-04-24T19:03:09.161Z,9.50
2018-04-24T19:05:36.639Z,10.27
2018-04-24T19:08:04.149Z,13.37
2018-04-24T19:10:31.636Z,9.27
2018-04-24T19:12:59.113Z,9.57
2018-04-24T19:15:26.606Z,10.13
2018-04-24T19:17:54.098Z,11.97
2018-04-24T19:20:21.597Z,11.60
2018-04-24T19:22:49.078Z,8.90
2018-04-24T19:25:23.036Z,9.70
2018-04-24T19:27:50.521Z,9.80
2018-04-24T19:30:18.033Z,9.43
2018-04-24T19:32:45.517Z,10.10
2018-04-24T19:35:13.019Z,14.70
2018-04-24T19:37:40.502Z,10.70
2018-04-24T19:40:13.651Z,13.17
2018-04-24T19:42:41.131Z,12.17
2018-04-24T19:45:08.626Z,16.03
2018-04-24T19:47:36.100Z,24.93
2018-04-24T19:50:09.401Z,11.73
2018-04-24T19:52:37.637Z,8.23
2018-04-24T19:55:10.751Z,10.33
2018-04-24T19:57:38.216Z,11.60
2018-04-24T20:00:05.694Z,13.13
2018-04-24T20:02:33.961Z,19.53
2018-04-24T20:05:01.425Z,12.67
2018-04-24T20:07:29.677Z,5.97
2018-04-24T20:09:57.151Z,7.33
2018-04-24T20:12:25.401Z,9.23
2018-04-24T20:14:52.871Z,9.53
2018-04-24T20:17:20.359Z,9.87
2018-04-24T20:19:47.829Z,7.53
2018-04-24T20:22:15.329Z,6.90
2018-04-24T20:24:42.804Z,9.07
2018-04-24T20:27:10.264Z,8.73
2018-04-24T20:29:38.523Z,9.77
2018-04-24T20:32:06.748Z,6.07
2018-04-24T20:34:34.244Z,10.23
2018-04-24T20:37:01.705Z,7.33
2018-04-24T20:39:29.193Z,7.27
2018-04-24T20:41:57.420Z,6.87
2018-04-24T20:44:24.917Z,7.57
2018-04-24T20:46:52.381Z,8.97
2018-04-24T20:49:19.849Z,14.87
2018-04-24T20:51:47.333Z,15.70
2018-04-24T20:54:14.800Z,9.07
2018-04-24T20:56:42.280Z,9.70
2018-04-24T20:59:09.753Z,8.90
2018-04-24T21:01:37.997Z,10.43
2018-04-24T21:04:05.847Z,8.50
2018-04-24T21:06:33.337Z,11.47
2018-04-24T21:09:01.569Z,7.27
2018-04-24T21:11:29.034Z,5.43
2018-04-24T21:13:56.525Z,9.80
2018-04-24T21:16:24.754Z,8.67
2018-04-24T21:18:52.235Z,8.67
2018-04-24T21:21:19.704Z,7.53
2018-04-24T21:23:47.189Z,5.57
2018-04-24T21:26:14.662Z,9.93
2018-04-24T21:28:42.150Z,9.43
2018-04-24T21:31:09.621Z,10.17
2018-04-24T21:33:37.083Z,5.50
2018-04-24T21:36:04.565Z,10.53
2018-04-24T21:38:32.029Z,6.57
2018-04-24T21:40:59.528Z,8.00
2018-04-24T21:43:26.993Z,9.73
2018-04-24T21:45:54.475Z,8.80
2018-04-24T21:48:22.709Z,6.23
2018-04-24T21:50:50.188Z,5.47
2018-04-24T21:53:17.652Z,4.70
2018-04-24T21:55:45.142Z,8.00
2018-04-24T21:58:12.613Z,5.13
2018-04-24T22:00:40.083Z,6.20
2018-04-24T22:03:07.577Z,5.50
2018-04-24T22:05:35.040Z,4.63
2018-04-24T22:08:02.520Z,4.97
2018-04-24T22:10:29.997Z,5.83
2018-04-24T22:12:57.477Z,6.67
2018-04-24T22:15:24.945Z,7.03
2018-04-24T22:17:52.436Z,7.53
2018-04-24T22:20:19.909Z,7.50
2018-04-24T22:22:47.376Z,6.13
2018-04-24T22:25:14.869Z,7.77
2018-04-24T22:27:42.336Z,4.13
2018-04-24T22:30:09.816Z,6.37
2018-04-24T22:32:37.309Z,5.77
2018-04-24T22:35:04.793Z,4.77
2018-04-24T22:37:32.261Z,6.13
2018-04-24T22:39:59.741Z,4.73
2018-04-24T22:42:27.209Z,9.43
2018-04-24T22:44:54.701Z,5.27
2018-04-24T22:47:22.164Z,5.77
2018-04-24T22:49:49.649Z,4.30
2018-04-24T22:52:17.949Z,7.57
2018-04-24T22:54:45.689Z,4.63
2018-04-24T22:57:13.152Z,5.33
2018-04-24T22:59:40.631Z,4.33
2018-04-24T23:02:08.115Z,7.47
2018-04-24T23:04:35.588Z,4.23
2018-04-24T23:07:03.069Z,7.73
2018-04-24T23:09:31.375Z,6.50
2018-04-24T23:12:10.797Z,4.10
2018-04-24T23:14:50.249Z,3.87
2018-04-24T23:17:29.603Z,6.00
2018-04-24T23:20:09.069Z,5.23
2018-04-24T23:22:36.537Z,5.07
2018-04-24T23:25:04.789Z,6.70
2018-04-24T23:27:32.265Z,4.73
2018-04-24T23:29:59.738Z,5.03
2018-04-24T23:32:27.220Z,4.67
2018-04-24T23:34:54.680Z,7.03
2018-04-24T23:37:22.232Z,8.23
2018-04-24T23:39:49.697Z,6.37
2018-04-24T23:42:17.180Z,8.57
2018-04-24T23:44:44.664Z,8.00
2018-04-24T23:47:12.259Z,5.67
2018-04-24T23:49:39.749Z,4.50
2018-04-24T23:52:07.236Z,6.87
2018-04-24T23:54:35.483Z,7.03
2018-04-24T23:57:02.980Z,5.07
2018-04-24T23:59:31.293Z,4.63
